sensor_id;sensor_type;location;lat;lon;timestamp;temperature;humidity
31747;DHT22;18319;48.974;8.462;2024-03-02T00:00:49;6.00;99.90
31747;DHT22;18319;48.974;8.462;2024-03-02T00:03:16;6.10;99.90
31747;DHT22;18319;48.974;8.462;2024-03-02T00:05:47;6.10;99.90
31747;DHT22;18319;48.974;8.462;2024-03-02T00:08:22;6.10;99.90
31747;DHT22;18319;48.974;8.462;2024-03-02T00:10:49;6.30;99.90
31747;DHT22;18319;48.974;8.462;2024-03-02T00:13:16;6.30;99.90
31747;DHT22;18319;48.974;8.462;2024-03-02T00:15:47;6.40;99.90
31747;DHT22;18319;48.974;8.462;2024-03-02T00:18:18;6.30;99.90
31747;DHT22;18319;48.974;8.462;2024-03-02T00:20:47;6.30;99.90
31747;DHT22;18319;48.974;8.462;2024-03-02T00:23:15;6.20;99.90
31747;DHT22;18319;48.974;8.462;2024-03-02T00:25:43;6.10;99.90
31747;DHT22;18319;48.974;8.462;2024-03-02T00:28:16;6.20;99.90
31747;DHT22;18319;48.974;8.462;2024-03-02T00:30:56;6.30;99.90
31747;DHT22;18319;48.974;8.462;2024-03-02T00:33:25;6.30;99.90
31747;DHT22;18319;48.974;8.462;2024-03-02T00:35:54;6.10;99.90
31747;DHT22;18319;48.974;8.462;2024-03-02T00:38:22;6.00;99.90
31747;DHT22;18319;48.974;8.462;2024-03-02T00:40:49;6.10;99.90
31747;DHT22;18319;48.974;8.462;2024-03-02T00:43:42;6.00;99.90
31747;DHT22;18319;48.974;8.462;2024-03-02T00:46:11;5.90;99.90
31747;DHT22;18319;48.974;8.462;2024-03-02T00:48:38;5.80;99.90
31747;DHT22;18319;48.974;8.462;2024-03-02T00:51:06;5.70;99.90
31747;DHT22;18319;48.974;8.462;2024-03-02T00:53:33;5.80;99.90
31747;DHT22;18319;48.974;8.462;2024-03-02T00:56:01;5.70;99.90
31747;DHT22;18319;48.974;8.462;2024-03-02T00:58:27;5.80;99.90
31747;DHT22;18319;48.974;8.462;2024-03-02T01:00:54;5.90;99.90
31747;DHT22;18319;48.974;8.462;2024-03-02T01:03:21;5.90;99.90
31747;DHT22;18319;48.974;8.462;2024-03-02T01:05:47;6.00;99.90
31747;DHT22;18319;48.974;8.462;2024-03-02T01:08:15;6.00;99.90
31747;DHT22;18319;48.974;8.462;2024-03-02T01:10:42;6.00;99.90
31747;DHT22;18319;48.974;8.462;2024-03-02T01:13:09;6.00;99.90
31747;DHT22;18319;48.974;8.462;2024-03-02T01:15:36;6.10;99.90
31747;DHT22;18319;48.974;8.462;2024-03-02T01:18:03;6.00;99.90
31747;DHT22;18319;48.974;8.462;2024-03-02T01:20:30;6.00;99.90
31747;DHT22;18319;48.974;8.462;2024-03-02T01:22:57;6.10;99.90
31747;DHT22;18319;48.974;8.462;2024-03-02T01:25:25;6.00;99.90
31747;DHT22;18319;48.974;8.462;2024-03-02T01:27:52;5.90;99.90
31747;DHT22;18319;48.974;8.462;2024-03-02T01:30:19;6.00;99.90
31747;DHT22;18319;48.974;8.462;2024-03-02T01:32:47;6.10;99.90
31747;DHT22;18319;48.974;8.462;2024-03-02T01:35:13;6.20;99.90
31747;DHT22;18319;48.974;8.462;2024-03-02T01:37:41;6.20;99.90
31747;DHT22;18319;48.974;8.462;2024-03-02T01:40:08;6.20;99.90
31747;DHT22;18319;48.974;8.462;2024-03-02T01:42:38;6.10;99.90
31747;DHT22;18319;48.974;8.462;2024-03-02T01:45:05;6.00;99.90
31747;DHT22;18319;48.974;8.462;2024-03-02T01:47:32;6.00;99.90
31747;DHT22;18319;48.974;8.462;2024-03-02T01:50:00;6.10;99.90
31747;DHT22;18319;48.974;8.462;2024-03-02T01:52:27;6.10;99.90
31747;DHT22;18319;48.974;8.462;2024-03-02T01:54:55;6.20;99.90
31747;DHT22;18319;48.974;8.462;2024-03-02T01:57:21;6.00;99.90
31747;DHT22;18319;48.974;8.462;2024-03-02T01:59:49;5.80;99.90
31747;DHT22;18319;48.974;8.462;2024-03-02T02:02:17;5.90;99.90
31747;DHT22;18319;48.974;8.462;2024-03-02T02:04:43;5.90;99.90
31747;DHT22;18319;48.974;8.462;2024-03-02T02:07:10;5.90;99.90
31747;DHT22;18319;48.974;8.462;2024-03-02T02:09:37;5.90;99.90
31747;DHT22;18319;48.974;8.462;2024-03-02T02:12:04;6.00;99.90
31747;DHT22;18319;48.974;8.462;2024-03-02T02:14:32;5.90;99.90
31747;DHT22;18319;48.974;8.462;2024-03-02T02:17:00;5.90;99.90
31747;DHT22;18319;48.974;8.462;2024-03-02T02:19:27;5.90;99.90
31747;DHT22;18319;48.974;8.462;2024-03-02T02:21:55;5.80;99.90
31747;DHT22;18319;48.974;8.462;2024-03-02T02:24:22;5.80;99.90
31747;DHT22;18319;48.974;8.462;2024-03-02T02:26:49;5.70;99.90
31747;DHT22;18319;48.974;8.462;2024-03-02T02:29:15;5.70;99.90
31747;DHT22;18319;48.974;8.462;2024-03-02T02:31:42;5.70;99.90
31747;DHT22;18319;48.974;8.462;2024-03-02T02:34:09;5.70;99.90
31747;DHT22;18319;48.974;8.462;2024-03-02T02:36:38;5.70;99.90
31747;DHT22;18319;48.974;8.462;2024-03-02T02:39:09;5.70;99.90
31747;DHT22;18319;48.974;8.462;2024-03-02T02:41:37;5.70;99.90
31747;DHT22;18319;48.974;8.462;2024-03-02T02:44:04;5.80;99.90
31747;DHT22;18319;48.974;8.462;2024-03-02T02:46:31;5.80;99.90
31747;DHT22;18319;48.974;8.462;2024-03-02T02:48:58;5.70;99.90
31747;DHT22;18319;48.974;8.462;2024-03-02T02:51:24;5.70;99.90
31747;DHT22;18319;48.974;8.462;2024-03-02T02:53:51;5.70;99.90
31747;DHT22;18319;48.974;8.462;2024-03-02T02:56:20;5.70;99.90
31747;DHT22;18319;48.974;8.462;2024-03-02T02:58:47;5.70;99.90
31747;DHT22;18319;48.974;8.462;2024-03-02T03:01:15;5.70;99.90
31747;DHT22;18319;48.974;8.462;2024-03-02T03:03:42;5.60;99.90
31747;DHT22;18319;48.974;8.462;2024-03-02T03:06:09;5.60;99.90
31747;DHT22;18319;48.974;8.462;2024-03-02T03:08:36;5.60;99.90
31747;DHT22;18319;48.974;8.462;2024-03-02T03:11:03;5.60;99.90
31747;DHT22;18319;48.974;8.462;2024-03-02T03:13:31;5.50;99.90
31747;DHT22;18319;48.974;8.462;2024-03-02T03:15:58;5.50;99.90
31747;DHT22;18319;48.974;8.462;2024-03-02T03:18:25;5.50;99.90
31747;DHT22;18319;48.974;8.462;2024-03-02T03:20:51;5.50;99.90
31747;DHT22;18319;48.974;8.462;2024-03-02T03:23:18;5.50;99.90
31747;DHT22;18319;48.974;8.462;2024-03-02T03:25:46;5.50;99.90
31747;DHT22;18319;48.974;8.462;2024-03-02T03:28:13;5.50;99.90
31747;DHT22;18319;48.974;8.462;2024-03-02T03:30:41;5.60;99.90
31747;DHT22;18319;48.974;8.462;2024-03-02T03:33:08;5.50;99.90
31747;DHT22;18319;48.974;8.462;2024-03-02T03:35:36;5.50;99.90
31747;DHT22;18319;48.974;8.462;2024-03-02T03:38:03;5.40;99.90
31747;DHT22;18319;48.974;8.462;2024-03-02T03:40:30;5.30;99.90
31747;DHT22;18319;48.974;8.462;2024-03-02T03:42:56;5.30;99.90
31747;DHT22;18319;48.974;8.462;2024-03-02T03:45:23;5.20;99.90
31747;DHT22;18319;48.974;8.462;2024-03-02T03:47:53;5.10;99.90
31747;DHT22;18319;48.974;8.462;2024-03-02T03:50:19;5.20;99.90
31747;DHT22;18319;48.974;8.462;2024-03-02T03:52:46;5.10;99.90
31747;DHT22;18319;48.974;8.462;2024-03-02T03:55:13;5.10;99.90
31747;DHT22;18319;48.974;8.462;2024-03-02T03:57:40;5.10;99.90
31747;DHT22;18319;48.974;8.462;2024-03-02T04:00:08;5.10;99.90
31747;DHT22;18319;48.974;8.462;2024-03-02T04:02:36;5.00;99.90
31747;DHT22;18319;48.974;8.462;2024-03-02T04:05:05;5.10;99.90
31747;DHT22;18319;48.974;8.462;2024-03-02T04:07:35;5.10;99.90
31747;DHT22;18319;48.974;8.462;2024-03-02T04:10:07;5.10;99.90
31747;DHT22;18319;48.974;8.462;2024-03-02T04:12:34;5.10;99.90
31747;DHT22;18319;48.974;8.462;2024-03-02T04:15:01;5.10;99.90
31747;DHT22;18319;48.974;8.462;2024-03-02T04:17:31;5.10;99.90
31747;DHT22;18319;48.974;8.462;2024-03-02T04:19:57;5.10;99.90
31747;DHT22;18319;48.974;8.462;2024-03-02T04:22:26;5.10;99.90
31747;DHT22;18319;48.974;8.462;2024-03-02T04:24:53;5.10;99.90
31747;DHT22;18319;48.974;8.462;2024-03-02T04:27:20;5.10;99.90
31747;DHT22;18319;48.974;8.462;2024-03-02T04:29:46;5.20;99.90
31747;DHT22;18319;48.974;8.462;2024-03-02T04:32:13;5.30;99.90
31747;DHT22;18319;48.974;8.462;2024-03-02T04:34:40;5.20;99.90
31747;DHT22;18319;48.974;8.462;2024-03-02T04:37:07;5.30;99.90
31747;DHT22;18319;48.974;8.462;2024-03-02T04:39:36;5.30;99.90
31747;DHT22;18319;48.974;8.462;2024-03-02T04:42:03;5.30;99.90
31747;DHT22;18319;48.974;8.462;2024-03-02T04:44:29;5.30;99.90
31747;DHT22;18319;48.974;8.462;2024-03-02T04:46:56;5.20;99.90
31747;DHT22;18319;48.974;8.462;2024-03-02T04:49:23;5.20;99.90
31747;DHT22;18319;48.974;8.462;2024-03-02T04:51:50;5.20;99.90
31747;DHT22;18319;48.974;8.462;2024-03-02T04:54:16;5.20;99.90
31747;DHT22;18319;48.974;8.462;2024-03-02T04:56:45;5.20;99.90
31747;DHT22;18319;48.974;8.462;2024-03-02T04:59:15;5.30;99.90
31747;DHT22;18319;48.974;8.462;2024-03-02T05:01:41;5.20;99.90
31747;DHT22;18319;48.974;8.462;2024-03-02T05:04:08;5.10;99.90
31747;DHT22;18319;48.974;8.462;2024-03-02T05:06:37;5.10;99.90
31747;DHT22;18319;48.974;8.462;2024-03-02T05:09:04;5.10;99.90
31747;DHT22;18319;48.974;8.462;2024-03-02T05:11:30;5.00;99.90
31747;DHT22;18319;48.974;8.462;2024-03-02T05:14:36;5.00;99.90
31747;DHT22;18319;48.974;8.462;2024-03-02T05:17:03;5.10;99.90
31747;DHT22;18319;48.974;8.462;2024-03-02T05:19:30;5.30;99.90
31747;DHT22;18319;48.974;8.462;2024-03-02T05:21:57;5.20;99.90
31747;DHT22;18319;48.974;8.462;2024-03-02T05:24:23;5.40;99.90
31747;DHT22;18319;48.974;8.462;2024-03-02T05:26:52;5.40;99.90
31747;DHT22;18319;48.974;8.462;2024-03-02T05:29:19;5.40;99.90
31747;DHT22;18319;48.974;8.462;2024-03-02T05:31:47;5.40;99.90
31747;DHT22;18319;48.974;8.462;2024-03-02T05:34:14;5.50;99.90
31747;DHT22;18319;48.974;8.462;2024-03-02T05:36:40;5.40;99.90
31747;DHT22;18319;48.974;8.462;2024-03-02T05:39:07;5.30;99.90
31747;DHT22;18319;48.974;8.462;2024-03-02T05:41:35;5.30;99.90
31747;DHT22;18319;48.974;8.462;2024-03-02T05:44:03;5.30;99.90
31747;DHT22;18319;48.974;8.462;2024-03-02T05:46:30;5.20;99.90
31747;DHT22;18319;48.974;8.462;2024-03-02T05:48:58;5.30;99.90
31747;DHT22;18319;48.974;8.462;2024-03-02T05:51:25;5.40;99.90
31747;DHT22;18319;48.974;8.462;2024-03-02T05:53:52;5.40;99.90
31747;DHT22;18319;48.974;8.462;2024-03-02T05:56:19;5.50;99.90
31747;DHT22;18319;48.974;8.462;2024-03-02T05:58:45;5.50;99.90
31747;DHT22;18319;48.974;8.462;2024-03-02T06:01:23;5.40;99.90
31747;DHT22;18319;48.974;8.462;2024-03-02T06:03:54;5.30;99.90
31747;DHT22;18319;48.974;8.462;2024-03-02T06:06:22;5.20;99.90
31747;DHT22;18319;48.974;8.462;2024-03-02T06:08:49;5.20;99.90
31747;DHT22;18319;48.974;8.462;2024-03-02T06:11:15;5.20;99.90
31747;DHT22;18319;48.974;8.462;2024-03-02T06:13:42;5.10;99.90
31747;DHT22;18319;48.974;8.462;2024-03-02T06:16:09;5.00;99.90
31747;DHT22;18319;48.974;8.462;2024-03-02T06:18:35;5.10;99.90
31747;DHT22;18319;48.974;8.462;2024-03-02T06:21:03;5.10;99.90
31747;DHT22;18319;48.974;8.462;2024-03-02T06:23:31;5.10;99.90
31747;DHT22;18319;48.974;8.462;2024-03-02T06:25:58;5.10;99.90
31747;DHT22;18319;48.974;8.462;2024-03-02T06:28:24;5.10;99.90
31747;DHT22;18319;48.974;8.462;2024-03-02T06:30:51;4.90;99.90
31747;DHT22;18319;48.974;8.462;2024-03-02T06:33:18;4.80;99.90
31747;DHT22;18319;48.974;8.462;2024-03-02T06:35:44;4.80;99.90
31747;DHT22;18319;48.974;8.462;2024-03-02T06:38:11;4.80;99.90
31747;DHT22;18319;48.974;8.462;2024-03-02T06:40:39;5.00;99.90
31747;DHT22;18319;48.974;8.462;2024-03-02T06:43:06;5.10;99.90
31747;DHT22;18319;48.974;8.462;2024-03-02T06:45:38;5.20;99.90
31747;DHT22;18319;48.974;8.462;2024-03-02T06:48:06;5.30;99.90
31747;DHT22;18319;48.974;8.462;2024-03-02T06:50:33;5.30;99.90
31747;DHT22;18319;48.974;8.462;2024-03-02T06:53:00;5.30;99.90
31747;DHT22;18319;48.974;8.462;2024-03-02T06:55:26;5.40;99.90
31747;DHT22;18319;48.974;8.462;2024-03-02T06:57:54;5.40;99.90
31747;DHT22;18319;48.974;8.462;2024-03-02T07:00:21;5.50;99.90
31747;DHT22;18319;48.974;8.462;2024-03-02T07:02:48;5.60;99.90
31747;DHT22;18319;48.974;8.462;2024-03-02T07:05:15;5.60;99.90
31747;DHT22;18319;48.974;8.462;2024-03-02T07:07:42;5.70;99.90
31747;DHT22;18319;48.974;8.462;2024-03-02T07:10:09;5.70;99.90
31747;DHT22;18319;48.974;8.462;2024-03-02T07:12:35;5.80;99.90
31747;DHT22;18319;48.974;8.462;2024-03-02T07:15:05;5.90;99.90
31747;DHT22;18319;48.974;8.462;2024-03-02T07:17:50;5.90;99.90
31747;DHT22;18319;48.974;8.462;2024-03-02T07:20:17;5.90;99.90
31747;DHT22;18319;48.974;8.462;2024-03-02T07:22:44;6.10;99.90
31747;DHT22;18319;48.974;8.462;2024-03-02T07:25:11;6.10;99.90
31747;DHT22;18319;48.974;8.462;2024-03-02T07:27:38;6.20;99.90
31747;DHT22;18319;48.974;8.462;2024-03-02T07:30:07;6.30;99.90
31747;DHT22;18319;48.974;8.462;2024-03-02T07:32:34;6.40;99.90
31747;DHT22;18319;48.974;8.462;2024-03-02T07:35:01;6.50;99.90
31747;DHT22;18319;48.974;8.462;2024-03-02T07:37:29;6.60;99.90
31747;DHT22;18319;48.974;8.462;2024-03-02T07:39:56;6.80;99.90
31747;DHT22;18319;48.974;8.462;2024-03-02T07:42:22;6.90;99.90
31747;DHT22;18319;48.974;8.462;2024-03-02T07:44:49;7.10;99.90
31747;DHT22;18319;48.974;8.462;2024-03-02T07:47:17;7.20;99.90
31747;DHT22;18319;48.974;8.462;2024-03-02T07:49:44;7.40;99.90
31747;DHT22;18319;48.974;8.462;2024-03-02T07:52:12;7.50;99.90
31747;DHT22;18319;48.974;8.462;2024-03-02T07:54:38;7.70;99.90
31747;DHT22;18319;48.974;8.462;2024-03-02T07:57:05;7.80;99.90
31747;DHT22;18319;48.974;8.462;2024-03-02T07:59:32;7.90;99.90
31747;DHT22;18319;48.974;8.462;2024-03-02T08:01:59;8.00;99.90
31747;DHT22;18319;48.974;8.462;2024-03-02T08:04:27;7.90;99.90
31747;DHT22;18319;48.974;8.462;2024-03-02T08:06:54;7.90;99.90
31747;DHT22;18319;48.974;8.462;2024-03-02T08:09:21;7.70;99.90
31747;DHT22;18319;48.974;8.462;2024-03-02T08:11:48;7.70;99.90
31747;DHT22;18319;48.974;8.462;2024-03-02T08:14:17;7.70;99.90
31747;DHT22;18319;48.974;8.462;2024-03-02T08:16:44;7.70;99.90
31747;DHT22;18319;48.974;8.462;2024-03-02T08:19:12;7.90;99.90
31747;DHT22;18319;48.974;8.462;2024-03-02T08:21:40;8.00;99.90
31747;DHT22;18319;48.974;8.462;2024-03-02T08:24:07;8.00;99.90
31747;DHT22;18319;48.974;8.462;2024-03-02T08:26:34;7.90;99.90
31747;DHT22;18319;48.974;8.462;2024-03-02T08:29:03;7.80;99.90
31747;DHT22;18319;48.974;8.462;2024-03-02T08:31:29;8.00;99.90
31747;DHT22;18319;48.974;8.462;2024-03-02T08:33:56;8.20;99.90
31747;DHT22;18319;48.974;8.462;2024-03-02T08:36:24;8.10;99.90
31747;DHT22;18319;48.974;8.462;2024-03-02T08:38:55;8.20;99.90
31747;DHT22;18319;48.974;8.462;2024-03-02T08:41:22;8.40;99.90
31747;DHT22;18319;48.974;8.462;2024-03-02T08:43:48;8.50;99.90
31747;DHT22;18319;48.974;8.462;2024-03-02T08:46:15;8.50;99.90
31747;DHT22;18319;48.974;8.462;2024-03-02T08:48:42;8.60;99.90
31747;DHT22;18319;48.974;8.462;2024-03-02T08:51:09;8.60;99.90
31747;DHT22;18319;48.974;8.462;2024-03-02T08:53:36;8.70;99.90
31747;DHT22;18319;48.974;8.462;2024-03-02T08:56:05;8.60;99.90
31747;DHT22;18319;48.974;8.462;2024-03-02T08:58:32;8.40;99.90
31747;DHT22;18319;48.974;8.462;2024-03-02T09:00:58;8.40;99.90
31747;DHT22;18319;48.974;8.462;2024-03-02T09:03:25;8.60;99.90
31747;DHT22;18319;48.974;8.462;2024-03-02T09:05:52;8.70;99.90
31747;DHT22;18319;48.974;8.462;2024-03-02T09:08:19;8.80;99.90
31747;DHT22;18319;48.974;8.462;2024-03-02T09:10:46;8.90;99.90
31747;DHT22;18319;48.974;8.462;2024-03-02T09:13:14;9.00;99.90
31747;DHT22;18319;48.974;8.462;2024-03-02T09:15:41;9.10;99.90
31747;DHT22;18319;48.974;8.462;2024-03-02T09:18:08;9.30;99.90
31747;DHT22;18319;48.974;8.462;2024-03-02T09:20:35;9.40;99.90
31747;DHT22;18319;48.974;8.462;2024-03-02T09:23:05;9.50;99.90
31747;DHT22;18319;48.974;8.462;2024-03-02T09:25:31;9.50;99.90
31747;DHT22;18319;48.974;8.462;2024-03-02T09:27:58;9.50;99.90
31747;DHT22;18319;48.974;8.462;2024-03-02T09:30:26;9.60;99.90
31747;DHT22;18319;48.974;8.462;2024-03-02T09:32:53;9.60;99.90
31747;DHT22;18319;48.974;8.462;2024-03-02T09:35:20;9.80;99.90
31747;DHT22;18319;48.974;8.462;2024-03-02T09:37:49;9.90;99.90
31747;DHT22;18319;48.974;8.462;2024-03-02T09:40:16;9.90;99.90
31747;DHT22;18319;48.974;8.462;2024-03-02T09:42:43;10.10;99.90
31747;DHT22;18319;48.974;8.462;2024-03-02T09:45:17;10.10;99.90
31747;DHT22;18319;48.974;8.462;2024-03-02T09:47:46;10.10;99.90
31747;DHT22;18319;48.974;8.462;2024-03-02T09:50:13;10.30;99.90
31747;DHT22;18319;48.974;8.462;2024-03-02T09:52:40;10.40;99.90
31747;DHT22;18319;48.974;8.462;2024-03-02T09:55:08;10.40;99.90
31747;DHT22;18319;48.974;8.462;2024-03-02T09:57:35;10.50;99.90
31747;DHT22;18319;48.974;8.462;2024-03-02T10:00:02;10.80;99.90
31747;DHT22;18319;48.974;8.462;2024-03-02T10:02:29;10.80;99.90
31747;DHT22;18319;48.974;8.462;2024-03-02T10:04:57;10.80;99.90
31747;DHT22;18319;48.974;8.462;2024-03-02T10:07:24;10.80;99.90
31747;DHT22;18319;48.974;8.462;2024-03-02T10:09:51;10.80;99.90
31747;DHT22;18319;48.974;8.462;2024-03-02T10:12:18;11.00;99.90
31747;DHT22;18319;48.974;8.462;2024-03-02T10:14:45;11.00;99.90
31747;DHT22;18319;48.974;8.462;2024-03-02T10:17:14;11.10;99.90
31747;DHT22;18319;48.974;8.462;2024-03-02T10:19:41;11.20;99.90
31747;DHT22;18319;48.974;8.462;2024-03-02T10:22:09;11.30;99.90
31747;DHT22;18319;48.974;8.462;2024-03-02T10:27:34;11.50;99.90
31747;DHT22;18319;48.974;8.462;2024-03-02T10:30:02;11.60;99.90
31747;DHT22;18319;48.974;8.462;2024-03-02T10:32:55;11.60;99.90
31747;DHT22;18319;48.974;8.462;2024-03-02T10:38:27;11.90;99.90
31747;DHT22;18319;48.974;8.462;2024-03-02T10:40:55;12.00;99.90
31747;DHT22;18319;48.974;8.462;2024-03-02T10:43:25;12.10;99.90
31747;DHT22;18319;48.974;8.462;2024-03-02T10:45:52;12.10;99.90
31747;DHT22;18319;48.974;8.462;2024-03-02T10:48:20;12.10;99.90
31747;DHT22;18319;48.974;8.462;2024-03-02T10:50:47;12.20;99.90
31747;DHT22;18319;48.974;8.462;2024-03-02T10:53:14;12.30;99.90
31747;DHT22;18319;48.974;8.462;2024-03-02T10:55:42;12.50;99.90
31747;DHT22;18319;48.974;8.462;2024-03-02T10:58:12;12.50;99.90
31747;DHT22;18319;48.974;8.462;2024-03-02T11:00:39;12.50;99.90
31747;DHT22;18319;48.974;8.462;2024-03-02T11:03:07;12.60;99.90
31747;DHT22;18319;48.974;8.462;2024-03-02T11:05:37;12.90;99.90
31747;DHT22;18319;48.974;8.462;2024-03-02T11:08:07;12.90;99.90
31747;DHT22;18319;48.974;8.462;2024-03-02T11:10:40;12.90;99.90
31747;DHT22;18319;48.974;8.462;2024-03-02T11:13:11;13.00;99.90
31747;DHT22;18319;48.974;8.462;2024-03-02T11:15:40;13.10;99.90
31747;DHT22;18319;48.974;8.462;2024-03-02T11:18:09;13.10;99.90
31747;DHT22;18319;48.974;8.462;2024-03-02T11:20:41;13.10;99.90
31747;DHT22;18319;48.974;8.462;2024-03-02T11:23:09;13.30;99.90
31747;DHT22;18319;48.974;8.462;2024-03-02T11:25:36;13.40;99.90
31747;DHT22;18319;48.974;8.462;2024-03-02T11:28:05;13.40;99.90
31747;DHT22;18319;48.974;8.462;2024-03-02T11:30:51;13.40;99.90
31747;DHT22;18319;48.974;8.462;2024-03-02T11:33:27;13.40;99.90
31747;DHT22;18319;48.974;8.462;2024-03-02T11:35:56;13.40;99.90
31747;DHT22;18319;48.974;8.462;2024-03-02T11:38:28;13.50;99.90
31747;DHT22;18319;48.974;8.462;2024-03-02T11:40:55;13.60;99.90
31747;DHT22;18319;48.974;8.462;2024-03-02T11:43:22;13.60;99.90
31747;DHT22;18319;48.974;8.462;2024-03-02T11:45:56;13.70;99.90
31747;DHT22;18319;48.974;8.462;2024-03-02T11:48:24;13.70;99.90
31747;DHT22;18319;48.974;8.462;2024-03-02T11:50:52;13.70;99.90
31747;DHT22;18319;48.974;8.462;2024-03-02T11:53:20;13.80;99.90
31747;DHT22;18319;48.974;8.462;2024-03-02T11:55:47;13.80;99.90
31747;DHT22;18319;48.974;8.462;2024-03-02T11:58:16;13.80;99.90
31747;DHT22;18319;48.974;8.462;2024-03-02T12:00:43;13.90;99.90
31747;DHT22;18319;48.974;8.462;2024-03-02T12:03:13;13.90;99.90
31747;DHT22;18319;48.974;8.462;2024-03-02T12:05:39;13.80;99.90
31747;DHT22;18319;48.974;8.462;2024-03-02T12:08:07;14.00;99.90
31747;DHT22;18319;48.974;8.462;2024-03-02T12:10:35;13.90;99.90
31747;DHT22;18319;48.974;8.462;2024-03-02T12:13:04;14.00;99.90
31747;DHT22;18319;48.974;8.462;2024-03-02T12:15:33;14.10;99.90
31747;DHT22;18319;48.974;8.462;2024-03-02T12:18:01;14.20;99.90
31747;DHT22;18319;48.974;8.462;2024-03-02T12:20:30;14.20;99.90
31747;DHT22;18319;48.974;8.462;2024-03-02T12:22:58;14.20;99.90
31747;DHT22;18319;48.974;8.462;2024-03-02T12:25:26;14.30;99.90
31747;DHT22;18319;48.974;8.462;2024-03-02T12:27:54;14.20;99.90
31747;DHT22;18319;48.974;8.462;2024-03-02T12:30:22;14.20;99.90
31747;DHT22;18319;48.974;8.462;2024-03-02T12:32:49;14.30;99.90
31747;DHT22;18319;48.974;8.462;2024-03-02T12:35:18;14.30;99.90
31747;DHT22;18319;48.974;8.462;2024-03-02T12:37:47;14.30;99.90
31747;DHT22;18319;48.974;8.462;2024-03-02T12:40:16;14.40;99.90
31747;DHT22;18319;48.974;8.462;2024-03-02T12:42:44;14.50;99.90
31747;DHT22;18319;48.974;8.462;2024-03-02T12:45:11;14.60;99.90
31747;DHT22;18319;48.974;8.462;2024-03-02T12:47:39;14.70;99.90
31747;DHT22;18319;48.974;8.462;2024-03-02T12:50:07;14.70;99.90
31747;DHT22;18319;48.974;8.462;2024-03-02T12:52:34;14.60;99.90
31747;DHT22;18319;48.974;8.462;2024-03-02T12:55:05;14.60;99.90
31747;DHT22;18319;48.974;8.462;2024-03-02T12:57:33;14.60;99.90
31747;DHT22;18319;48.974;8.462;2024-03-02T13:00:00;14.50;99.90
31747;DHT22;18319;48.974;8.462;2024-03-02T13:02:28;14.50;99.90
31747;DHT22;18319;48.974;8.462;2024-03-02T13:04:56;14.60;99.90
31747;DHT22;18319;48.974;8.462;2024-03-02T13:07:24;14.60;99.90
31747;DHT22;18319;48.974;8.462;2024-03-02T13:09:51;14.70;99.90
31747;DHT22;18319;48.974;8.462;2024-03-02T13:12:22;14.70;99.90
31747;DHT22;18319;48.974;8.462;2024-03-02T13:14:51;14.70;99.90
31747;DHT22;18319;48.974;8.462;2024-03-02T13:17:18;14.80;99.90
31747;DHT22;18319;48.974;8.462;2024-03-02T13:19:52;14.70;99.90
31747;DHT22;18319;48.974;8.462;2024-03-02T13:22:19;14.70;99.90
31747;DHT22;18319;48.974;8.462;2024-03-02T13:24:46;14.60;99.90
31747;DHT22;18319;48.974;8.462;2024-03-02T13:27:13;14.70;99.90
31747;DHT22;18319;48.974;8.462;2024-03-02T13:29:42;14.70;99.90
31747;DHT22;18319;48.974;8.462;2024-03-02T13:32:09;14.60;99.90
31747;DHT22;18319;48.974;8.462;2024-03-02T13:34:36;14.70;99.90
31747;DHT22;18319;48.974;8.462;2024-03-02T13:37:03;14.70;99.90
31747;DHT22;18319;48.974;8.462;2024-03-02T13:39:31;14.70;99.90
31747;DHT22;18319;48.974;8.462;2024-03-02T13:41:58;14.80;99.90
31747;DHT22;18319;48.974;8.462;2024-03-02T13:44:29;14.70;99.90
31747;DHT22;18319;48.974;8.462;2024-03-02T13:46:59;14.70;99.90
31747;DHT22;18319;48.974;8.462;2024-03-02T13:49:25;14.70;99.90
31747;DHT22;18319;48.974;8.462;2024-03-02T13:51:58;14.70;99.90
31747;DHT22;18319;48.974;8.462;2024-03-02T13:54:26;14.70;99.90
31747;DHT22;18319;48.974;8.462;2024-03-02T13:56:53;14.70;99.90
31747;DHT22;18319;48.974;8.462;2024-03-02T13:59:20;14.60;99.90
31747;DHT22;18319;48.974;8.462;2024-03-02T14:01:48;14.70;99.90
31747;DHT22;18319;48.974;8.462;2024-03-02T14:04:16;14.70;99.90
31747;DHT22;18319;48.974;8.462;2024-03-02T14:06:43;14.70;99.90
31747;DHT22;18319;48.974;8.462;2024-03-02T14:09:10;14.70;99.90
31747;DHT22;18319;48.974;8.462;2024-03-02T14:11:37;14.80;99.90
31747;DHT22;18319;48.974;8.462;2024-03-02T14:14:03;14.80;99.90
31747;DHT22;18319;48.974;8.462;2024-03-02T14:16:30;14.80;99.90
31747;DHT22;18319;48.974;8.462;2024-03-02T14:18:57;14.80;99.90
31747;DHT22;18319;48.974;8.462;2024-03-02T14:21:26;14.80;99.90
31747;DHT22;18319;48.974;8.462;2024-03-02T14:23:52;14.90;99.90
31747;DHT22;18319;48.974;8.462;2024-03-02T14:26:20;14.80;99.90
31747;DHT22;18319;48.974;8.462;2024-03-02T14:28:47;14.90;99.90
31747;DHT22;18319;48.974;8.462;2024-03-02T14:31:13;14.90;99.90
31747;DHT22;18319;48.974;8.462;2024-03-02T14:33:40;14.80;99.90
31747;DHT22;18319;48.974;8.462;2024-03-02T14:36:08;14.80;99.90
31747;DHT22;18319;48.974;8.462;2024-03-02T14:38:36;14.80;99.90
31747;DHT22;18319;48.974;8.462;2024-03-02T14:41:03;14.90;99.90
31747;DHT22;18319;48.974;8.462;2024-03-02T14:43:30;14.80;99.90
31747;DHT22;18319;48.974;8.462;2024-03-02T14:45:57;14.80;99.90
31747;DHT22;18319;48.974;8.462;2024-03-02T14:48:25;14.80;99.90
31747;DHT22;18319;48.974;8.462;2024-03-02T14:50:52;14.60;99.90
31747;DHT22;18319;48.974;8.462;2024-03-02T14:53:18;14.60;99.90
31747;DHT22;18319;48.974;8.462;2024-03-02T14:55:46;14.60;99.90
31747;DHT22;18319;48.974;8.462;2024-03-02T14:58:15;14.60;99.90
31747;DHT22;18319;48.974;8.462;2024-03-02T15:00:42;14.50;99.90
31747;DHT22;18319;48.974;8.462;2024-03-02T15:03:09;14.50;99.90
31747;DHT22;18319;48.974;8.462;2024-03-02T15:05:37;14.50;99.90
31747;DHT22;18319;48.974;8.462;2024-03-02T15:08:05;14.50;99.90
31747;DHT22;18319;48.974;8.462;2024-03-02T15:10:32;14.50;99.90
31747;DHT22;18319;48.974;8.462;2024-03-02T15:13:00;14.40;99.90
31747;DHT22;18319;48.974;8.462;2024-03-02T15:15:27;14.40;99.90
31747;DHT22;18319;48.974;8.462;2024-03-02T15:17:54;14.50;99.90
31747;DHT22;18319;48.974;8.462;2024-03-02T15:20:20;14.40;99.90
31747;DHT22;18319;48.974;8.462;2024-03-02T15:22:47;14.50;99.90
31747;DHT22;18319;48.974;8.462;2024-03-02T15:25:14;14.50;99.90
31747;DHT22;18319;48.974;8.462;2024-03-02T15:27:41;14.50;99.90
31747;DHT22;18319;48.974;8.462;2024-03-02T15:30:10;14.50;99.90
31747;DHT22;18319;48.974;8.462;2024-03-02T15:32:37;14.60;99.90
31747;DHT22;18319;48.974;8.462;2024-03-02T15:35:04;14.60;99.90
31747;DHT22;18319;48.974;8.462;2024-03-02T15:37:31;14.50;99.90
31747;DHT22;18319;48.974;8.462;2024-03-02T15:39:58;14.50;99.90
31747;DHT22;18319;48.974;8.462;2024-03-02T15:42:31;14.50;99.90
31747;DHT22;18319;48.974;8.462;2024-03-02T15:44:58;14.40;99.90
31747;DHT22;18319;48.974;8.462;2024-03-02T15:47:26;14.40;99.90
31747;DHT22;18319;48.974;8.462;2024-03-02T15:49:53;14.30;99.90